Time;durP1;ratioP1;P1;durP2;ratioP2;P2;SDS_P1;SDS_P2;PMS_P1;PMS_P2;Temp;Humidity;BMP_temperature;BMP_pressure;BME280_temperature;BME280_humidity;BME280_pressure;Samples;Min_cycle;Max_cycle;Signal;HPM_P1;HPM_P2
2022/04/27 00:01:38;;;;;;;14.77;8.63;;;;;;;8.75;73.50;100845.16;4797091;29;20034;-73
2022/04/27 00:04:03;;;;;;;18.73;9.18;;;;;;;8.58;74.18;100845.41;4797127;29;20087;-73
2022/04/27 00:06:29;;;;;;;16.25;9.20;;;;;;;8.53;74.57;100843.47;4782281;29;20035;-73
2022/04/27 00:08:54;;;;;;;12.63;8.68;;;;;;;8.47;74.80;100844.56;4797264;29;20030;-73
2022/04/27 00:11:20;;;;;;;14.88;8.88;;;;;;;8.49;76.76;100853.41;4797391;29;20037;-74
2022/04/27 00:13:45;;;;;;;16.60;9.45;;;;;;;8.45;76.02;100850.38;4782479;29;20046;-73
2022/04/27 00:16:11;;;;;;;14.38;8.75;;;;;;;8.43;76.25;100848.97;4796987;29;20037;-73
2022/04/27 00:18:37;;;;;;;17.00;9.20;;;;;;;8.34;77.93;100848.63;4767172;29;20042;-73
2022/04/27 00:21:02;;;;;;;13.02;7.95;;;;;;;8.38;74.94;100849.75;4781845;29;20030;-74
2022/04/27 00:23:30;;;;;;;17.20;9.65;;;;;;;8.31;75.97;100845.59;4797377;29;20078;-74
2022/04/27 00:25:55;;;;;;;18.08;11.05;;;;;;;8.22;79.70;100848.03;4828434;29;20039;-73
2022/04/27 00:28:21;;;;;;;17.63;9.15;;;;;;;8.25;76.74;100847.50;4797156;29;20515;-73
2022/04/27 00:30:47;;;;;;;13.10;9.43;;;;;;;8.17;78.42;100848.00;4781804;29;20034;-74
2022/04/27 00:33:13;;;;;;;16.58;10.23;;;;;;;8.12;79.05;100843.28;4796806;29;20030;-73
2022/04/27 00:35:38;;;;;;;14.07;9.90;;;;;;;8.05;81.87;100842.69;4796460;29;20034;-74
2022/04/27 00:38:04;;;;;;;17.38;9.88;;;;;;;8.02;80.70;100846.84;4782156;29;20067;-73
2022/04/27 00:40:29;;;;;;;17.88;9.63;;;;;;;7.98;81.92;100847.63;4811118;29;20131;-73
2022/04/27 00:42:55;;;;;;;17.75;9.88;;;;;;;7.91;83.42;100847.88;4796062;29;20042;-73
2022/04/27 00:45:21;;;;;;;17.13;9.95;;;;;;;7.93;83.51;100850.38;4811490;29;20038;-73
2022/04/27 00:47:46;;;;;;;20.95;9.98;;;;;;;7.91;82.90;100847.88;4828255;29;20034;-73
2022/04/27 00:50:12;;;;;;;13.63;9.65;;;;;;;7.92;82.03;100855.06;4828105;29;20511;-73
2022/04/27 00:52:38;;;;;;;13.65;9.35;;;;;;;7.82;84.42;100855.00;4811489;29;20175;-73
2022/04/27 00:55:04;;;;;;;13.65;8.68;;;;;;;7.87;83.85;100856.97;4796243;29;20057;-73
2022/04/27 00:57:29;;;;;;;14.07;8.48;;;;;;;7.86;82.33;100853.38;4781648;29;20480;-73
2022/04/27 00:59:55;;;;;;;16.15;9.10;;;;;;;7.87;81.37;100851.44;4796681;29;20034;-73
2022/04/27 01:02:21;;;;;;;15.68;9.80;;;;;;;7.84;84.41;100852.81;4794418;29;20113;-74
2022/04/27 01:04:46;;;;;;;15.82;9.13;;;;;;;7.82;83.90;100852.25;4796314;29;20067;-74
2022/04/27 01:07:12;;;;;;;13.00;8.30;;;;;;;7.86;81.31;100853.38;4827536;29;20038;-73
2022/04/27 01:09:37;;;;;;;14.75;8.27;;;;;;;7.82;83.38;100855.84;4827579;29;20034;-74
2022/04/27 01:12:04;;;;;;;19.90;8.50;;;;;;;7.89;81.68;100849.25;4796340;29;20125;-74
2022/04/27 01:14:42;;;;;;;16.42;9.57;;;;;;;7.84;83.50;100853.63;4781370;29;20034;-73
2022/04/27 01:17:07;;;;;;;15.40;8.77;;;;;;;7.86;81.69;100849.78;4796628;29;20461;-74
2022/04/27 01:19:33;;;;;;;14.75;9.40;;;;;;;7.79;83.03;100853.59;4766290;29;20034;-73
2022/04/27 01:21:59;;;;;;;16.35;9.27;;;;;;;7.81;82.61;100862.47;4766456;29;20057;-74
2022/04/27 01:24:25;;;;;;;15.07;8.90;;;;;;;7.82;82.45;100861.38;4766517;29;20407;-73
2022/04/27 01:26:51;;;;;;;13.23;8.55;;;;;;;7.80;82.64;100860.81;4781057;29;20050;-73
2022/04/27 01:29:17;;;;;;;16.02;9.02;;;;;;;7.84;81.98;100852.81;4781371;29;20075;-74
2022/04/27 01:31:46;;;;;;;13.90;8.98;;;;;;;7.76;82.73;100861.59;4781153;29;20087;-74
2022/04/27 01:34:12;;;;;;;14.73;8.52;;;;;;;7.76;81.58;100851.38;4781106;29;20054;-74
2022/04/27 01:36:38;;;;;;;16.02;8.93;;;;;;;7.72;80.96;100860.50;4780987;29;20038;-73
2022/04/27 01:39:04;;;;;;;16.25;9.35;;;;;;;7.76;81.27;100861.59;4796208;29;20035;-74
2022/04/27 01:41:29;;;;;;;12.27;9.30;;;;;;;7.70;82.37;100857.16;4795700;29;20390;-73
2022/04/27 01:43:57;;;;;;;13.48;8.52;;;;;;;7.70;81.90;100860.75;4781161;29;20030;-73
2022/04/27 01:46:23;;;;;;;13.68;8.93;;;;;;;7.70;81.41;100863.50;4795730;29;20038;-74
2022/04/27 01:48:50;;;;;;;21.30;9.90;;;;;;;7.59;83.88;100859.84;4792939;29;20122;-73
2022/04/27 01:51:16;;;;;;;16.55;9.40;;;;;;;7.59;83.16;100861.78;4800654;29;20042;-73
2022/04/27 01:56:25;;;;;;;14.82;8.90;;;;;;;7.55;82.83;100872.53;4826978;29;20133;-73
2022/04/27 01:58:51;;;;;;;13.43;8.98;;;;;;;7.56;81.64;100871.44;4795433;29;20034;-73
2022/04/27 02:01:16;;;;;;;14.60;8.95;;;;;;;7.58;82.94;100876.72;4826809;29;20034;-73
2022/04/27 02:03:42;;;;;;;14.75;9.10;;;;;;;7.55;82.41;100875.31;4810716;29;20091;-74
2022/04/27 02:06:07;;;;;;;14.80;9.32;;;;;;;7.52;82.22;100873.06;4810301;29;20030;-74
2022/04/27 02:08:33;;;;;;;13.27;9.18;;;;;;;7.48;82.37;100882.16;4810541;29;20504;-74
2022/04/27 02:10:58;;;;;;;17.63;9.63;;;;;;;7.46;82.53;100882.41;4777723;29;20031;-74
2022/04/27 02:13:26;;;;;;;14.50;9.05;;;;;;;7.39;82.65;100879.88;4763131;29;20384;-74
2022/04/27 02:15:52;;;;;;;15.02;9.20;;;;;;;7.35;83.53;100884.28;4798514;29;20066;-74
2022/04/27 02:18:19;;;;;;;13.90;8.80;;;;;;;7.35;82.62;100889.78;4810570;29;20055;-74
2022/04/27 02:20:45;;;;;;;17.05;9.57;;;;;;;7.26;83.84;100885.00;4795255;29;20548;-74
2022/04/27 02:23:11;;;;;;;14.65;9.20;;;;;;;7.26;83.37;100890.53;4810359;29;20038;-73
2022/04/27 02:25:36;;;;;;;14.57;9.27;;;;;;;7.23;82.74;100893.81;4826875;29;20031;-73
2022/04/27 02:28:02;;;;;;;11.48;8.55;;;;;;;7.25;83.05;100902.69;4810450;29;20053;-73
2022/04/27 02:30:27;;;;;;;14.95;9.00;;;;;;;7.18;82.86;100905.63;4810189;29;20030;-73
2022/04/27 02:32:53;;;;;;;15.05;8.95;;;;;;;7.14;82.73;100901.75;4810363;29;20035;-73
2022/04/27 02:35:18;;;;;;;15.30;9.25;;;;;;;7.15;82.29;100904.22;4791986;29;20050;-73
2022/04/27 02:37:45;;;;;;;16.42;8.93;;;;;;;7.18;81.46;100908.41;4801299;29;20045;-73
2022/04/27 02:40:10;;;;;;;14.68;9.10;;;;;;;7.13;82.36;100911.09;4821176;29;20059;-73
2022/04/27 02:42:36;;;;;;;13.55;9.45;;;;;;;7.07;83.04;100912.16;4793970;29;20455;-74
2022/04/27 02:45:02;;;;;;;14.73;9.05;;;;;;;7.00;83.22;100906.84;4795102;29;20042;-74
2022/04/27 02:47:27;;;;;;;11.95;8.25;;;;;;;6.99;83.26;100915.38;4821310;29;20050;-73
2022/04/27 02:52:36;;;;;;;12.60;8.88;;;;;;;6.89;83.50;100905.91;4826372;29;20035;-74
2022/04/27 02:55:02;;;;;;;15.65;9.02;;;;;;;6.84;84.17;100905.03;4794944;29;20047;-73
2022/04/27 02:57:28;;;;;;;20.10;10.20;;;;;;;6.78;84.59;100909.66;4810229;29;20126;-73
2022/04/27 02:59:53;;;;;;;15.35;9.23;;;;;;;6.77;83.99;100908.00;4826595;29;20034;-74
2022/04/27 03:02:19;;;;;;;14.60;9.90;;;;;;;6.75;84.42;100918.47;4795172;29;20038;-74
2022/04/27 03:04:44;;;;;;;12.55;8.73;;;;;;;6.78;83.67;100912.41;4797962;29;20026;-74
2022/04/27 03:07:10;;;;;;;16.58;9.15;;;;;;;6.76;82.93;100911.84;4768331;29;20125;-74
2022/04/27 03:09:36;;;;;;;17.50;9.40;;;;;;;6.74;83.75;100921.47;4798321;29;20037;-74
2022/04/27 03:12:01;;;;;;;15.50;8.77;;;;;;;6.77;82.52;100927.31;4798152;29;20038;-74
2022/04/27 03:14:30;;;;;;;17.23;10.10;;;;;;;6.73;83.03;100923.41;4798059;29;20039;-73
2022/04/27 03:16:55;;;;;;;15.02;9.57;;;;;;;6.67;83.43;100921.69;4813025;29;20042;-74
2022/04/27 03:19:21;;;;;;;10.95;8.15;;;;;;;6.64;82.73;100922.19;4798224;29;20171;-74
2022/04/27 03:21:47;;;;;;;16.88;9.63;;;;;;;6.56;84.15;100925.41;4812856;29;20034;-74
2022/04/27 03:24:12;;;;;;;14.52;9.15;;;;;;;6.49;84.66;100925.59;4798029;29;20027;-74
2022/04/27 03:26:38;;;;;;;14.40;9.00;;;;;;;6.48;84.87;100924.75;4796745;29;20237;-74
2022/04/27 03:29:03;;;;;;;11.77;8.55;;;;;;;6.48;84.00;100924.75;4829217;29;20046;-74
2022/04/27 03:31:29;;;;;;;15.23;8.73;;;;;;;6.45;84.34;100922.50;4797729;29;20088;-73
2022/04/27 03:33:54;;;;;;;13.50;8.60;;;;;;;6.41;84.00;100917.78;4812837;29;20115;-74
2022/04/27 03:36:20;;;;;;;12.70;7.85;;;;;;;6.45;82.74;100914.22;4812677;29;20046;-74
2022/04/27 03:38:48;;;;;;;14.18;8.95;;;;;;;6.36;83.99;100921.28;4812782;29;20038;-74
2022/04/27 03:41:17;;;;;;;14.02;8.60;;;;;;;6.44;82.54;100923.63;4797905;29;20036;-74
2022/04/27 03:43:43;;;;;;;14.52;9.00;;;;;;;6.42;82.92;100914.75;4813136;29;20540;-73
2022/04/27 03:46:09;;;;;;;12.77;7.57;;;;;;;6.46;81.45;100915.06;4797712;29;20053;-74
2022/04/27 03:48:34;;;;;;;11.65;7.88;;;;;;;6.47;81.34;100917.56;4829172;29;20035;-73
2022/04/27 03:50:59;;;;;;;13.23;8.43;;;;;;;6.42;81.90;100917.50;4796696;29;20096;-73
2022/04/27 03:53:25;;;;;;;11.68;8.57;;;;;;;6.44;80.87;100907.06;4797607;29;20034;-73
2022/04/27 03:55:50;;;;;;;14.15;8.95;;;;;;;6.40;81.81;100921.63;4796697;29;20054;-73
2022/04/27 03:58:16;;;;;;;15.32;8.95;;;;;;;6.38;81.63;100915.50;4797228;29;20516;-74
2022/04/27 04:00:41;;;;;;;13.05;8.32;;;;;;;6.37;80.97;100919.38;4782437;29;20042;-73
2022/04/27 04:03:07;;;;;;;11.30;7.63;;;;;;;6.38;80.54;100923.78;4777889;29;20061;-73
2022/04/27 04:05:32;;;;;;;13.10;8.05;;;;;;;6.36;80.82;100915.78;4807156;29;20038;-74
2022/04/27 04:07:58;;;;;;;15.05;8.18;;;;;;;6.32;81.09;100914.59;4797468;29;20649;-73
2022/04/27 04:10:23;;;;;;;16.52;8.85;;;;;;;6.30;80.94;100910.47;4796913;29;20034;-73
2022/04/27 04:12:49;;;;;;;17.38;8.73;;;;;;;6.25;81.15;100909.28;4797338;29;20725;-73
2022/04/27 04:15:14;;;;;;;15.10;8.68;;;;;;;6.19;81.98;100910.31;4796200;29;20041;-73
2022/04/27 04:17:46;;;;;;;12.95;8.20;;;;;;;6.16;81.53;100907.25;4786106;29;20030;-73
2022/04/27 04:20:17;;;;;;;11.43;8.02;;;;;;;6.10;81.54;100902.72;4828240;29;20083;-73
2022/04/27 04:22:42;;;;;;;15.57;8.60;;;;;;;6.02;82.48;100912.28;4811952;29;20492;-73
2022/04/27 04:30:36;;;;;;;10.40;6.93;;;;;;;6.13;80.28;100916.00;4812075;29;20483;-74
2022/04/27 04:33:01;;;;;;;15.35;7.82;;;;;;;6.08;80.31;100922.31;4811792;29;20057;-74
2022/04/27 04:35:27;;;;;;;13.45;8.40;;;;;;;6.06;80.32;100920.88;4827796;29;20038;-73
2022/04/27 04:37:52;;;;;;;13.07;8.43;;;;;;;6.00;81.01;100929.06;4811662;29;20042;-73
2022/04/27 04:40:18;;;;;;;12.93;8.23;;;;;;;5.97;80.80;100934.28;4796787;29;20507;-73
2022/04/27 04:42:44;;;;;;;13.85;8.15;;;;;;;5.93;81.39;100935.81;4811400;29;20030;-74
2022/04/27 04:45:09;;;;;;;11.80;8.20;;;;;;;5.88;81.84;100946.75;4811810;29;20042;-74
2022/04/27 04:47:35;;;;;;;15.27;8.95;;;;;;;5.86;81.84;100940.69;4811691;29;20034;-74
2022/04/27 04:50:00;;;;;;;13.48;9.63;;;;;;;5.75;83.13;100937.75;4796322;29;20022;-73
2022/04/27 04:52:27;;;;;;;13.10;8.77;;;;;;;5.69;83.32;100947.03;4797046;29;20034;-73
2022/04/27 04:54:52;;;;;;;12.60;8.45;;;;;;;5.70;82.91;100953.38;4799377;29;20058;-73
2022/04/27 04:57:17;;;;;;;14.02;8.70;;;;;;;5.70;82.67;100950.63;4801790;29;20037;-73
2022/04/27 04:59:43;;;;;;;15.57;9.43;;;;;;;5.63;83.62;100945.28;4766614;29;20034;-73
2022/04/27 05:02:08;;;;;;;14.38;9.43;;;;;;;5.58;83.84;100948.78;4796330;29;20034;-73
2022/04/27 05:04:34;;;;;;;13.05;9.18;;;;;;;5.55;83.94;100945.72;4778181;29;20035;-73
2022/04/27 05:06:59;;;;;;;15.15;8.30;;;;;;;5.52;84.41;100948.97;4804750;29;20063;-73
2022/04/27 05:09:25;;;;;;;12.60;8.00;;;;;;;5.60;83.03;100949.38;4827408;29;20067;-73
2022/04/27 05:11:50;;;;;;;13.43;8.48;;;;;;;5.59;83.46;100949.63;4796529;29;20117;-73
2022/04/27 05:14:16;;;;;;;15.93;8.82;;;;;;;5.59;84.28;100955.97;4796187;29;20035;-73
2022/04/27 05:16:41;;;;;;;15.90;9.57;;;;;;;5.59;84.50;100950.44;4778112;29;20038;-73
2022/04/27 05:19:07;;;;;;;11.23;8.25;;;;;;;5.71;82.48;100949.53;4827481;29;20415;-73
2022/04/27 05:21:32;;;;;;;14.90;9.32;;;;;;;5.76;82.55;100958.72;4766375;29;20062;-73
2022/04/27 05:23:58;;;;;;;13.52;9.50;;;;;;;5.71;83.83;100957.78;4781390;29;20038;-74
2022/04/27 05:26:23;;;;;;;11.63;8.25;;;;;;;5.83;82.22;100958.56;4810682;29;20082;-74
2022/04/27 05:34:17;;;;;;;13.95;8.45;;;;;;;5.99;81.35;100966.03;4800647;29;20078;-73
2022/04/27 05:36:42;;;;;;;12.00;8.27;;;;;;;6.06;81.31;100965.00;4780190;29;20039;-73
2022/04/27 05:39:10;;;;;;;12.55;8.65;;;;;;;6.02;82.69;100965.50;4795330;29;20042;-74
2022/04/27 05:41:36;;;;;;;15.90;8.95;;;;;;;6.00;83.29;100970.44;4827208;29;20034;-74
2022/04/27 05:44:02;;;;;;;14.70;9.38;;;;;;;6.08;83.06;100968.34;4796067;29;20031;-74
2022/04/27 05:46:28;;;;;;;13.43;9.35;;;;;;;6.12;83.89;100963.97;4811802;29;20033;-74
2022/04/27 05:48:54;;;;;;;12.93;9.15;;;;;;;6.19;83.88;100973.75;4810842;29;20038;-74
2022/04/27 05:51:19;;;;;;;14.68;8.75;;;;;;;6.26;84.23;100970.81;4810502;29;20037;-74
2022/04/27 05:53:45;;;;;;;12.10;9.27;;;;;;;6.34;83.34;100973.13;4827132;29;20042;-74
2022/04/27 05:56:10;;;;;;;14.23;8.93;;;;;;;6.45;83.76;100974.09;4795177;29;20552;-74
2022/04/27 05:58:36;;;;;;;12.60;8.55;;;;;;;6.61;82.36;100977.91;4766088;29;20063;-75
2022/04/27 06:01:01;;;;;;;17.13;8.48;;;;;;;6.71;81.89;100972.50;4781081;29;20034;-74
2022/04/27 06:03:27;;;;;;;16.15;8.82;;;;;;;6.79;82.10;100974.81;4810745;29;20030;-74
2022/04/27 06:05:52;;;;;;;14.27;9.27;;;;;;;6.91;81.82;100971.94;4822384;29;20033;-74
2022/04/27 06:08:18;;;;;;;17.23;9.70;;;;;;;7.06;81.37;100977.63;4827197;29;20049;-74
2022/04/27 06:10:43;;;;;;;16.67;9.20;;;;;;;7.20;80.65;100969.75;4792384;29;20624;-74
2022/04/27 06:13:09;;;;;;;13.38;9.02;;;;;;;7.36;80.04;100979.88;4795630;29;20042;-74
2022/04/27 06:15:34;;;;;;;10.60;8.10;;;;;;;7.51;78.92;100979.19;4824290;29;20043;-75
2022/04/27 06:18:00;;;;;;;12.57;8.93;;;;;;;7.60;78.65;100976.75;4824363;29;20042;-74
2022/04/27 06:20:25;;;;;;;15.95;8.63;;;;;;;7.79;77.85;100977.19;4795177;29;20038;-74
2022/04/27 06:22:51;;;;;;;14.32;9.32;;;;;;;7.94;77.82;100976.47;4820159;29;20122;-74
2022/04/27 06:25:18;;;;;;;13.90;9.23;;;;;;;8.10;77.19;100983.78;4798221;29;20045;-74
2022/04/27 06:27:44;;;;;;;13.60;9.13;;;;;;;8.23;76.79;100979.75;4795653;29;20058;-75
2022/04/27 06:30:10;;;;;;;15.93;9.68;;;;;;;8.38;76.92;100973.44;4795236;29;20034;-75
2022/04/27 06:32:35;;;;;;;16.33;9.75;;;;;;;8.57;75.73;100971.09;4779013;29;20039;-74
2022/04/27 06:35:01;;;;;;;14.23;9.65;;;;;;;8.70;76.03;100974.22;4810072;29;20041;-73
2022/04/27 06:37:54;;;;;;;12.48;9.27;;;;;;;8.82;74.65;100978.69;4826569;29;20374;-83
2022/04/27 06:40:20;;;;;;;14.98;9.85;;;;;;;8.96;74.65;100985.38;4799032;29;20041;-74
2022/04/27 06:42:45;;;;;;;14.52;9.90;;;;;;;9.10;73.54;100980.16;4822759;29;20026;-74
2022/04/27 06:56:20;;;;;;;15.18;9.93;;;;;;;9.74;72.61;100984.44;4823950;29;20049;-77
2022/04/27 06:58:45;;;;;;;15.88;11.20;;;;;;;9.91;72.05;100976.66;4819190;29;20035;-77
2022/04/27 07:01:13;;;;;;;18.80;10.43;;;;;;;10.05;71.52;100983.28;4829458;29;20396;-77
2022/04/27 07:03:39;;;;;;;17.13;11.55;;;;;;;10.21;71.10;100988.84;4828536;29;20069;-77
2022/04/27 07:06:04;;;;;;;15.20;10.90;;;;;;;10.41;70.29;100993.53;4798125;29;20480;-77
2022/04/27 07:08:59;;;;;;;18.55;11.43;;;;;;;10.67;69.56;100988.75;4797998;29;20098;-80
2022/04/27 07:11:42;;;;;;;19.52;11.68;;;;;;;10.83;68.60;100995.91;4797771;29;20030;-80
2022/04/27 07:14:39;;;;;;;16.02;11.57;;;;;;;10.95;67.99;100996.44;4785254;29;20603;-81
2022/04/27 07:17:15;;;;;;;17.13;11.82;;;;;;;11.16;67.37;101001.88;4802885;29;20054;-80
2022/04/27 07:19:54;;;;;;;21.60;11.80;;;;;;;11.26;67.64;100999.06;4818220;29;20141;-80
2022/04/27 07:22:26;;;;;;;18.42;11.65;;;;;;;11.47;67.51;101004.47;4784041;29;20046;-80
2022/04/27 07:24:57;;;;;;;15.95;11.15;;;;;;;11.65;66.76;100998.25;4768143;29;20519;-80
2022/04/27 07:27:31;;;;;;;17.67;11.57;;;;;;;11.65;65.66;101001.03;4783400;29;20042;-80
2022/04/27 07:30:10;;;;;;;17.80;11.82;;;;;;;11.84;65.16;100998.38;4782986;29;20515;-80
2022/04/27 07:32:39;;;;;;;18.33;11.98;;;;;;;11.96;65.06;101006.38;4791204;29;20041;-80
2022/04/27 07:35:05;;;;;;;16.67;11.63;;;;;;;12.07;64.97;101010.75;4782082;29;20084;-81
2022/04/27 07:37:42;;;;;;;19.33;12.18;;;;;;;12.22;64.77;101002.22;4798634;29;20038;-81
2022/04/27 07:40:21;;;;;;;17.92;12.73;;;;;;;12.37;64.83;101003.19;4778074;29;20508;-80
2022/04/27 07:42:49;;;;;;;17.50;12.10;;;;;;;12.43;65.16;101002.03;4797909;29;20066;-80
2022/04/27 07:45:30;;;;;;;17.63;12.18;;;;;;;12.47;64.48;100995.56;4778911;29;20043;-80
2022/04/27 07:48:01;;;;;;;18.13;12.75;;;;;;;12.64;63.82;100999.84;4787285;29;20043;-81
2022/04/27 07:50:26;;;;;;;19.38;13.20;;;;;;;12.75;63.81;101004.19;4797749;29;20086;-82
2022/04/27 07:53:00;;;;;;;20.58;12.73;;;;;;;12.89;62.47;101001.50;4797935;29;20117;-81
2022/04/27 07:55:29;;;;;;;17.67;12.65;;;;;;;12.87;63.03;101009.31;4798910;29;20055;-80
2022/04/27 07:57:57;;;;;;;22.15;14.15;;;;;;;12.96;62.26;101005.59;4796678;29;20038;-82
2022/04/27 08:00:29;;;;;;;22.52;13.57;;;;;;;12.97;61.06;101009.22;4797478;29;20066;-82
2022/04/27 08:02:55;;;;;;;21.90;13.52;;;;;;;13.17;61.87;101011.72;4796602;29;20035;-83
2022/04/27 08:05:21;;;;;;;15.85;12.05;;;;;;;13.28;61.99;101014.41;4779170;29;20460;-83
2022/04/27 08:11:35;;;;;;;17.75;13.15;;;;;;;13.59;61.49;101014.81;4805615;29;20034;-83
2022/04/27 08:14:31;;;;;;;;;;;;;;;;;;;;;
2022/04/27 08:17:24;;;;;;;20.15;12.82;;;;;;;13.97;60.38;101009.19;4778778;30;20044;-82
2022/04/27 08:23:09;;;;;;;17.50;13.65;;;;;;;14.11;59.75;101020.41;4765236;30;20036;-81
2022/04/27 08:25:50;;;;;;;21.45;13.88;;;;;;;14.26;59.30;101017.34;4771445;30;20783;-82
2022/04/27 08:28:19;;;;;;;;;;;;;;;14.37;59.42;101010.44;4744127;30;20035;-80
2022/04/27 08:30:57;;;;;;;18.95;12.52;;;;;;;14.51;60.83;101014.09;4789172;29;19952;-81
2022/04/27 08:33:23;;;;;;;17.92;14.40;;;;;;;14.68;60.00;101010.72;4759638;30;20123;-81
2022/04/27 08:35:57;;;;;;;17.67;13.48;;;;;;;14.70;58.53;101016.81;4756425;30;20032;-82
2022/04/27 08:38:30;;;;;;;19.65;13.40;;;;;;;14.80;57.80;101014.97;4772407;29;20679;-81
2022/04/27 08:41:08;;;;;;;18.63;13.73;;;;;;;14.81;58.60;101014.66;4782018;29;20041;-81
2022/04/27 08:43:54;;;;;;;20.27;14.15;;;;;;;14.94;57.33;101022.22;4783767;29;20068;-82
2022/04/27 08:46:33;;;;;;;20.30;14.52;;;;;;;14.97;57.91;101021.59;4781660;29;20149;-83
2022/04/27 08:49:06;;;;;;;22.77;13.95;;;;;;;15.14;57.43;101011.75;4768272;29;20049;-81
2022/04/27 08:52:13;;;;;;;;;;;;;;;;;;;;;
2022/04/27 08:54:59;;;;;;;21.85;15.32;;;;;;;15.44;58.01;101015.03;4822272;29;20065;-75
2022/04/27 08:57:24;;;;;;;19.35;14.05;;;;;;;15.47;55.78;101022.78;4811749;29;20037;-75
2022/04/27 08:59:50;;;;;;;19.95;14.43;;;;;;;15.57;55.99;101011.34;4795673;29;20027;-76
2022/04/27 09:02:36;;;;;;;18.77;14.07;;;;;;;15.63;56.70;101022.13;4802086;29;20055;-73
2022/04/27 09:05:05;;;;;;;24.67;14.88;;;;;;;15.56;55.50;101012.50;4795831;29;20095;-72
2022/04/27 09:07:51;;;;;;;19.88;14.70;;;;;;;15.63;55.62;101015.69;4811376;29;20034;-72
2022/04/27 09:10:18;;;;;;;25.52;15.75;;;;;;;15.64;56.04;101006.97;4810919;29;20408;-72
2022/04/27 09:12:55;;;;;;;22.23;16.48;;;;;;;15.64;54.71;101011.75;4796764;29;20092;-72
2022/04/27 09:15:25;;;;;;;21.88;15.27;;;;;;;15.49;55.38;101014.88;4781341;29;20077;-72
2022/04/27 09:20:50;;;;;;;22.33;14.85;;;;;;;15.60;55.60;101022.75;4800490;29;20087;-75
2022/04/27 09:23:23;;;;;;;26.35;16.05;;;;;;;15.64;55.64;101020.97;4798992;29;20093;-75
2022/04/27 09:25:55;;;;;;;22.27;15.20;;;;;;;15.64;55.42;101025.75;4796416;29;20035;-73
2022/04/27 09:28:31;;;;;;;22.42;15.77;;;;;;;15.77;56.15;101010.06;4814081;29;20038;-73
2022/04/27 09:30:56;;;;;;;21.63;15.77;;;;;;;15.77;56.00;101032.47;4835994;29;20496;-73
2022/04/27 09:33:32;;;;;;;22.08;15.38;;;;;;;15.82;54.50;101023.94;4811107;29;20030;-73
2022/04/27 09:35:58;;;;;;;21.48;15.98;;;;;;;15.92;55.36;101029.28;4795641;29;20466;-73
2022/04/27 09:38:24;;;;;;;22.33;15.65;;;;;;;16.05;54.91;101033.19;4766295;29;20038;-73
2022/04/27 09:40:52;;;;;;;26.92;18.35;;;;;;;15.97;54.27;101036.75;4796180;29;20034;-73
2022/04/27 09:43:37;;;;;;;24.95;16.52;;;;;;;15.93;54.17;101019.75;4766493;29;20090;-73
2022/04/27 09:46:25;;;;;;;21.85;16.50;;;;;;;16.05;55.13;101017.22;4795525;29;20105;-73
2022/04/27 09:49:15;;;;;;;21.75;16.70;;;;;;;16.22;54.47;101019.28;4781444;29;20034;-73
2022/04/27 09:51:50;;;;;;;22.30;15.45;;;;;;;16.34;55.09;101018.69;4829804;29;20049;-73
2022/04/27 09:54:20;;;;;;;23.27;16.05;;;;;;;16.43;55.34;101013.16;4798324;29;20560;-73
2022/04/27 09:56:56;;;;;;;21.75;15.18;;;;;;;16.52;55.53;101003.66;4772678;29;20037;-73
2022/04/27 09:59:26;;;;;;;26.08;16.25;;;;;;;16.57;52.36;101019.47;4778848;29;20425;-73
2022/04/27 10:01:53;;;;;;;22.08;14.63;;;;;;;16.67;53.60;101010.78;4763561;29;20122;-73
2022/04/27 10:04:20;;;;;;;22.27;16.25;;;;;;;16.59;51.36;101024.78;4766776;29;20100;-73
2022/04/27 10:06:47;;;;;;;22.90;16.55;;;;;;;16.58;52.13;101021.16;4763906;29;20035;-73
2022/04/27 10:09:12;;;;;;;20.27;15.35;;;;;;;16.56;51.87;101019.81;4752673;29;20042;-72
2022/04/27 10:11:38;;;;;;;21.00;16.10;;;;;;;16.47;51.55;101011.38;4776622;29;20027;-72
2022/04/27 10:14:03;;;;;;;21.27;15.05;;;;;;;16.35;51.26;101014.75;4781012;29;20049;-72
2022/04/27 10:16:29;;;;;;;22.17;15.77;;;;;;;16.37;52.14;101015.25;4795712;29;20041;-72
2022/04/27 10:18:54;;;;;;;22.63;16.17;;;;;;;16.34;52.58;101012.28;4781118;29;20398;-72
2022/04/27 10:21:43;;;;;;;21.05;15.68;;;;;;;16.19;52.39;101005.94;4755588;30;20043;-72
2022/04/27 10:24:09;;;;;;;20.58;16.00;;;;;;;16.21;52.83;101019.59;4766013;29;20039;-72
2022/04/27 10:26:34;;;;;;;24.38;15.55;;;;;;;16.34;53.93;101012.28;4796474;29;20626;-73
2022/04/27 10:29:02;;;;;;;21.40;15.30;;;;;;;16.38;52.54;101007.66;4784591;29;20043;-73
2022/04/27 10:31:40;;;;;;;20.35;14.35;;;;;;;16.43;52.76;101008.34;4796018;29;20076;-73
2022/04/27 10:34:21;;;;;;;19.63;15.00;;;;;;;16.44;53.37;101012.00;4795914;29;20030;-73
2022/04/27 10:36:47;;;;;;;22.48;15.40;;;;;;;16.44;51.92;101018.44;4811709;29;20039;-74
2022/04/27 10:39:13;;;;;;;21.75;15.45;;;;;;;16.42;51.69;101000.28;4795890;29;20035;-75
2022/04/27 10:41:42;;;;;;;19.20;14.52;;;;;;;16.31;51.53;101000.56;4812239;29;20114;-75
2022/04/27 10:44:08;;;;;;;18.27;15.13;;;;;;;16.17;52.01;101002.59;4777835;30;20037;-75
2022/04/27 10:46:38;;;;;;;21.48;15.23;;;;;;;16.18;52.05;100997.81;4789217;30;20023;-72
2022/04/27 10:49:33;;;;;;;19.48;15.32;;;;;;;16.18;52.27;100987.44;4786479;29;20553;-72
2022/04/27 10:52:03;;;;;;;20.30;14.07;;;;;;;16.26;53.27;100988.66;4768373;29;20046;-73
2022/04/27 10:54:31;;;;;;;18.95;14.13;;;;;;;16.46;53.87;100973.25;4778214;29;20046;-73
2022/04/27 10:57:16;;;;;;;19.25;14.27;;;;;;;16.63;53.15;100981.75;4776879;29;20095;-72
2022/04/27 10:59:48;;;;;;;19.20;13.73;;;;;;;16.79;52.34;100964.50;4802366;29;20488;-73
2022/04/27 11:02:33;;;;;;;19.73;14.07;;;;;;;17.02;52.65;100968.88;4798473;29;20730;-73
2022/04/27 11:04:58;;;;;;;18.50;14.88;;;;;;;17.14;51.75;100962.63;4803787;29;20034;-73
2022/04/27 11:07:29;;;;;;;17.02;13.45;;;;;;;17.26;51.32;100959.19;4798365;29;20038;-72
2022/04/27 11:10:11;;;;;;;18.25;14.55;;;;;;;17.31;51.70;100959.03;4797194;29;20073;-73
2022/04/27 11:12:40;;;;;;;20.13;13.35;;;;;;;17.49;51.36;100952.25;4813441;29;20042;-73
2022/04/27 11:15:06;;;;;;;21.73;15.13;;;;;;;17.51;52.36;100949.13;4768486;29;20162;-73
2022/04/27 11:17:35;;;;;;;19.83;14.00;;;;;;;17.70;53.49;100955.22;4768462;29;20051;-73
2022/04/27 11:20:03;;;;;;;20.27;14.50;;;;;;;17.59;50.54;100956.72;4783674;29;20560;-73
2022/04/27 11:22:40;;;;;;;20.45;14.65;;;;;;;17.57;49.79;100959.03;4798625;29;20096;-73
2022/04/27 11:25:07;;;;;;;20.73;14.35;;;;;;;17.55;50.46;100953.75;4769329;29;20065;-73
2022/04/27 11:27:34;;;;;;;19.00;15.07;;;;;;;17.50;51.28;100956.72;4783593;29;20042;-73
2022/04/27 11:30:00;;;;;;;21.23;14.43;;;;;;;17.58;50.58;100947.47;4797913;29;20086;-72
2022/04/27 11:32:28;;;;;;;18.10;13.70;;;;;;;17.69;51.40;100939.53;4767367;29;20042;-73
2022/04/27 11:34:53;;;;;;;19.48;14.55;;;;;;;17.74;50.91;100930.91;4768550;29;20034;-73
2022/04/27 11:37:20;;;;;;;19.63;14.38;;;;;;;17.72;51.64;100932.41;4785399;29;20075;-73
2022/04/27 11:39:45;;;;;;;19.92;13.98;;;;;;;17.75;50.78;100932.59;4801225;29;20030;-73
2022/04/27 11:42:12;;;;;;;20.58;14.77;;;;;;;17.80;50.55;100937.22;4767956;29;20038;-73
2022/04/27 11:44:38;;;;;;;19.33;13.60;;;;;;;17.86;50.65;100924.66;4768063;29;20037;-73
2022/04/27 11:47:04;;;;;;;19.92;13.52;;;;;;;17.88;50.05;100925.16;4768210;29;20026;-73
2022/04/27 11:49:29;;;;;;;16.63;13.52;;;;;;;17.89;49.94;100920.38;4782511;29;20041;-73
2022/04/27 11:51:55;;;;;;;18.05;13.52;;;;;;;17.91;50.43;100921.66;4811697;29;20176;-73
2022/04/27 11:54:27;;;;;;;19.40;14.20;;;;;;;17.86;49.95;100916.25;4828207;29;20045;-73
2022/04/27 11:56:57;;;;;;;21.92;14.95;;;;;;;17.86;51.14;100910.63;4812686;29;20049;-73
2022/04/27 11:59:24;;;;;;;21.55;15.05;;;;;;;17.88;50.71;100899.84;4797748;29;20034;-73
2022/04/27 12:01:52;;;;;;;16.92;13.75;;;;;;;17.93;49.93;100904.47;4779564;29;20042;-73
2022/04/27 12:04:18;;;;;;;21.52;14.73;;;;;;;17.87;49.67;100895.41;4826167;29;20130;-73
2022/04/27 12:06:45;;;;;;;20.67;14.82;;;;;;;17.91;50.82;100901.19;4828611;29;20075;-73